Port Talbot, United Kingdom
Current Conditions -  °F | °C
As of 5:50 AM on Saturday 29 Nov 2014 (Local Time) from EGDX Reporting Station
Clear Clear  
Wind Chill: 50°   Ceiling: Unl
Heat Index: 50°   Visibility: 6mi
Dew Point: 48°   Wind: 12mph
Humidity: 94%   Direction: 60°ENE
Pressure: 29.71"   Gusts: NA
Location:  51.6°N, 3.78°W
Report Text: EGDX 290550Z AUTO 06010KT 9999 NCD 10/09 Q1006
Loading
Personal Weather Stations






























Interactive Weather Map New forecast layout! Learn more

10-Day Weather Forecast

Advertisements
Track Severe Weather on mobile